createdAt,value
2022-11-16T00:00:05.620Z,29.43
2022-11-16T00:02:37.547Z,29.42
2022-11-16T00:05:09.018Z,29.38
2022-11-16T00:07:40.403Z,29.34
2022-11-16T00:10:12.942Z,29.04
2022-11-16T00:12:43.539Z,29.22
2022-11-16T00:15:14.640Z,29.44
2022-11-16T00:17:45.904Z,29.51
2022-11-16T00:20:17.591Z,29.35
2022-11-16T00:22:49.300Z,29.44
2022-11-16T00:25:20.711Z,29.38
2022-11-16T00:27:54.625Z,29.40
2022-11-16T00:30:26.837Z,29.38
2022-11-16T00:33:01.741Z,29.50
2022-11-16T00:35:33.349Z,29.62
2022-11-16T00:38:04.515Z,29.65
2022-11-16T00:40:35.740Z,29.69
2022-11-16T00:43:06.987Z,29.68
2022-11-16T00:45:40.781Z,29.73
2022-11-16T00:48:12.610Z,29.71
2022-11-16T00:50:45.780Z,29.83
2022-11-16T00:53:19.800Z,29.89
2022-11-16T00:55:51.276Z,29.97
2022-11-16T00:58:24.602Z,30.00
2022-11-16T01:01:10.760Z,29.48
2022-11-16T01:03:41.983Z,30.00
2022-11-16T01:06:16.282Z,29.18
2022-11-16T01:08:47.631Z,30.10
2022-11-16T01:11:38.361Z,30.12
2022-11-16T01:14:10.755Z,30.16
2022-11-16T01:16:42.185Z,30.16
2022-11-16T01:19:13.467Z,30.20
2022-11-16T01:21:44.875Z,30.22
2022-11-16T01:24:16.351Z,30.15
2022-11-16T01:26:47.921Z,30.13
2022-11-16T01:29:19.283Z,30.27
2022-11-16T01:31:58.715Z,29.93
2022-11-16T01:34:30.949Z,30.32
2022-11-16T01:37:09.366Z,30.34
2022-11-16T01:39:44.565Z,30.36
2022-11-16T01:42:34.998Z,30.30
2022-11-16T01:45:25.555Z,30.11
2022-11-16T01:48:00.581Z,30.41
2022-11-16T01:50:36.321Z,30.44
2022-11-16T01:53:10.627Z,30.40
2022-11-16T01:55:51.709Z,30.47
2022-11-16T01:58:49.023Z,30.47
2022-11-16T02:01:27.410Z,30.28
2022-11-16T02:04:01.934Z,30.53
2022-11-16T02:06:47.169Z,30.56
2022-11-16T02:09:56.887Z,30.57
2022-11-16T02:13:05.841Z,30.48
2022-11-16T02:16:00.210Z,30.11
2022-11-16T02:18:56.147Z,30.61
2022-11-16T02:21:42.669Z,30.62
2022-11-16T02:24:38.340Z,30.65
2022-11-16T02:27:39.031Z,30.68
2022-11-16T02:30:10.458Z,30.70
2022-11-16T02:32:48.150Z,30.73
2022-11-16T02:35:25.977Z,30.62
2022-11-16T02:38:06.604Z,30.79
2022-11-16T02:40:41.142Z,30.81
2022-11-16T02:43:18.394Z,30.28
2022-11-16T02:45:53.188Z,30.88
2022-11-16T02:48:29.036Z,30.88
2022-11-16T02:51:00.846Z,30.87
2022-11-16T02:53:53.531Z,30.93
2022-11-16T02:56:25.005Z,30.93
2022-11-16T02:58:59.519Z,30.93
2022-11-16T03:01:38.667Z,31.01
2022-11-16T03:04:36.006Z,31.03
2022-11-16T03:07:10.911Z,31.03
2022-11-16T03:09:45.273Z,31.08
2022-11-16T03:12:22.294Z,31.10
2022-11-16T03:15:01.929Z,31.11
2022-11-16T03:17:46.292Z,30.63
2022-11-16T03:20:23.918Z,31.11
2022-11-16T03:23:05.976Z,31.22
2022-11-16T03:25:41.952Z,30.91
2022-11-16T03:28:40.722Z,31.11
2022-11-16T03:31:28.961Z,30.78
2022-11-16T03:34:06.453Z,31.30
2022-11-16T03:36:43.631Z,30.76
2022-11-16T03:39:23.914Z,31.32
2022-11-16T03:41:56.712Z,31.38
2022-11-16T03:44:29.911Z,31.00
2022-11-16T03:47:01.106Z,31.27
2022-11-16T03:49:35.326Z,31.37
2022-11-16T03:52:07.063Z,31.11
2022-11-16T03:54:38.241Z,31.46
2022-11-16T03:57:09.401Z,31.46
2022-11-16T03:59:40.766Z,31.49
2022-11-16T04:02:12.836Z,31.51
2022-11-16T04:05:02.055Z,31.03
2022-11-16T04:07:51.847Z,31.48
2022-11-16T04:10:41.313Z,31.48
2022-11-16T04:13:33.182Z,30.84
2022-11-16T04:16:22.802Z,31.51
2022-11-16T04:19:11.991Z,31.55
2022-11-16T04:22:12.477Z,31.54
2022-11-16T04:24:48.721Z,31.06
2022-11-16T04:27:42.293Z,31.26
2022-11-16T04:30:14.312Z,31.55
2022-11-16T04:33:04.062Z,31.59
2022-11-16T04:35:53.992Z,31.59
2022-11-16T04:38:25.584Z,31.57
2022-11-16T04:40:56.644Z,31.31
2022-11-16T04:43:28.630Z,31.60
2022-11-16T04:46:18.801Z,31.60
2022-11-16T04:48:49.908Z,31.56
2022-11-16T04:51:21.199Z,31.71
2022-11-16T04:53:52.802Z,31.74
2022-11-16T04:56:26.510Z,31.78
2022-11-16T04:58:57.633Z,31.77
2022-11-16T05:01:47.806Z,31.78
2022-11-16T05:04:19.730Z,31.79
2022-11-16T05:06:51.370Z,31.56
2022-11-16T05:09:23.414Z,31.80
2022-11-16T05:11:54.648Z,31.90
2022-11-16T05:14:26.049Z,31.92
2022-11-16T05:16:57.398Z,31.95
2022-11-16T05:19:46.900Z,31.81
2022-11-16T05:22:18.203Z,31.82
2022-11-16T05:24:49.956Z,31.56
2022-11-16T05:27:24.395Z,32.04
2022-11-16T05:29:56.577Z,32.07
2022-11-16T05:32:29.502Z,31.66
2022-11-16T05:35:03.422Z,31.97
2022-11-16T05:37:34.627Z,32.09
2022-11-16T05:40:06.587Z,32.11
2022-11-16T05:42:44.923Z,32.15
2022-11-16T05:45:20.717Z,32.09
2022-11-16T05:47:53.334Z,32.20
2022-11-16T05:50:24.925Z,32.08
2022-11-16T05:53:09.325Z,32.18
2022-11-16T05:55:40.640Z,32.23
2022-11-16T05:58:12.134Z,32.12
2022-11-16T06:00:43.436Z,32.26
2022-11-16T06:03:15.683Z,32.15
2022-11-16T06:05:47.609Z,32.25
2022-11-16T06:08:21.014Z,32.29
2022-11-16T06:10:56.294Z,32.36
2022-11-16T06:13:27.848Z,32.36
2022-11-16T06:16:02.859Z,32.39
2022-11-16T06:18:40.351Z,32.03
2022-11-16T06:21:14.384Z,32.45
2022-11-16T06:23:45.874Z,32.44
2022-11-16T06:26:17.154Z,32.47
2022-11-16T06:28:50.682Z,32.54
2022-11-16T06:31:22.595Z,32.44
2022-11-16T06:33:54.060Z,32.52
2022-11-16T06:36:30.376Z,32.59
2022-11-16T06:39:02.891Z,32.59
2022-11-16T06:41:41.377Z,32.68
2022-11-16T06:44:15.370Z,32.67
2022-11-16T06:46:56.592Z,32.66
2022-11-16T06:49:28.084Z,32.67
2022-11-16T06:52:03.216Z,32.36
2022-11-16T06:54:36.383Z,32.75
2022-11-16T06:57:07.826Z,32.74
2022-11-16T06:59:39.016Z,32.71
2022-11-16T07:02:12.566Z,32.31
2022-11-16T07:04:45.828Z,32.82
2022-11-16T07:07:19.862Z,32.79
2022-11-16T07:09:51.706Z,32.81
2022-11-16T07:12:23.437Z,32.85
2022-11-16T07:14:54.616Z,32.85
2022-11-16T07:17:27.514Z,32.85
2022-11-16T07:19:59.015Z,32.91
2022-11-16T07:22:30.026Z,32.64
2022-11-16T07:25:03.133Z,32.94
2022-11-16T07:27:34.284Z,32.95
2022-11-16T07:30:07.037Z,32.61
2022-11-16T07:32:48.311Z,33.02
2022-11-16T07:35:39.890Z,33.04
2022-11-16T07:38:15.417Z,33.09
2022-11-16T07:40:50.002Z,33.12
2022-11-16T07:43:24.912Z,33.12
2022-11-16T07:49:18.108Z,33.22
2022-11-16T07:52:01.776Z,33.22
2022-11-16T07:54:46.464Z,33.27
2022-11-16T07:57:19.029Z,33.27
2022-11-16T07:59:50.500Z,33.35
2022-11-16T08:02:21.897Z,33.26
2022-11-16T08:04:54.445Z,33.26
2022-11-16T08:07:29.637Z,33.47
2022-11-16T08:10:01.031Z,33.48
2022-11-16T08:12:32.883Z,33.51
2022-11-16T08:15:04.176Z,33.53
2022-11-16T08:17:35.350Z,33.53
2022-11-16T08:20:09.888Z,33.59
2022-11-16T08:22:41.113Z,33.63
2022-11-16T08:25:13.717Z,33.68
2022-11-16T08:27:49.101Z,33.67
2022-11-16T08:30:24.042Z,33.73
2022-11-16T08:32:56.414Z,33.68
2022-11-16T08:35:27.554Z,33.64
2022-11-16T08:37:59.195Z,33.74
2022-11-16T08:40:32.176Z,33.85
2022-11-16T08:43:03.384Z,33.86
2022-11-16T08:45:36.128Z,33.93
2022-11-16T08:48:08.393Z,33.92
2022-11-16T08:51:02.386Z,33.86
2022-11-16T08:53:31.979Z,33.95
2022-11-16T08:56:10.159Z,33.98
2022-11-16T08:58:50.305Z,33.71
2022-11-16T09:01:26.168Z,34.03
2022-11-16T09:03:58.195Z,33.99
2022-11-16T09:06:30.059Z,34.00
2022-11-16T09:09:00.554Z,33.84
2022-11-16T09:11:31.639Z,33.98
2022-11-16T09:14:02.741Z,34.07
2022-11-16T09:16:34.614Z,34.01
2022-11-16T09:19:05.732Z,34.12
2022-11-16T09:21:39.168Z,34.08
2022-11-16T09:24:11.084Z,34.13
2022-11-16T09:26:42.176Z,34.12
2022-11-16T09:29:17.459Z,34.07
2022-11-16T09:31:49.329Z,34.12
2022-11-16T09:34:20.576Z,34.02
2022-11-16T09:36:51.722Z,34.10
2022-11-16T09:39:31.431Z,34.00
2022-11-16T09:42:46.157Z,33.96
2022-11-16T09:45:29.681Z,34.09
2022-11-16T09:48:05.744Z,33.96
2022-11-16T09:50:52.682Z,34.05
2022-11-16T09:53:35.997Z,34.00
2022-11-16T09:56:13.702Z,33.79
2022-11-16T09:59:27.981Z,33.56
2022-11-16T10:01:59.048Z,33.39
2022-11-16T10:05:12.059Z,33.12
2022-11-16T10:07:48.223Z,33.21
2022-11-16T10:10:27.053Z,32.99
2022-11-16T10:12:58.092Z,33.08
2022-11-16T10:15:53.928Z,32.42
2022-11-16T10:18:47.751Z,32.38
2022-11-16T10:21:41.352Z,32.97
2022-11-16T10:24:39.667Z,32.93
2022-11-16T10:27:10.902Z,32.91
2022-11-16T10:29:52.105Z,32.39
2022-11-16T10:32:32.898Z,32.84
2022-11-16T10:35:07.448Z,32.85
2022-11-16T10:37:45.851Z,32.79
2022-11-16T10:40:40.431Z,32.50
2022-11-16T10:43:14.276Z,32.81
2022-11-16T10:46:07.378Z,32.80
2022-11-16T10:48:45.827Z,32.77
2022-11-16T10:51:17.740Z,32.72
2022-11-16T10:53:48.898Z,32.75
2022-11-16T10:56:26.037Z,32.72
2022-11-16T10:59:01.290Z,32.72
2022-11-16T11:01:46.383Z,32.69
2022-11-16T11:04:24.001Z,32.62
2022-11-16T11:07:04.138Z,32.67
2022-11-16T11:09:43.139Z,32.60
2022-11-16T11:12:37.188Z,32.61
2022-11-16T11:15:14.975Z,32.62
2022-11-16T11:17:50.670Z,32.62
2022-11-16T11:20:26.494Z,32.59
2022-11-16T11:23:00.385Z,32.46
2022-11-16T11:25:38.883Z,32.58
2022-11-16T11:28:25.021Z,32.15
2022-11-16T11:31:23.924Z,32.47
2022-11-16T11:34:25.523Z,32.04
2022-11-16T11:37:05.684Z,32.43
2022-11-16T11:39:39.022Z,32.44
2022-11-16T11:42:16.299Z,32.49
2022-11-16T11:44:58.766Z,32.49
2022-11-16T11:47:57.996Z,32.40
2022-11-16T11:50:39.296Z,32.42
2022-11-16T11:53:32.118Z,32.45
2022-11-16T11:56:03.890Z,32.40
2022-11-16T11:58:40.031Z,32.31
2022-11-16T12:01:29.013Z,32.36
2022-11-16T12:04:33.846Z,32.30
2022-11-16T12:07:36.318Z,32.28
2022-11-16T12:10:26.045Z,32.32
2022-11-16T12:13:03.216Z,32.31
2022-11-16T12:15:58.078Z,32.30
2022-11-16T12:18:36.370Z,32.30
2022-11-16T12:21:21.023Z,31.84
2022-11-16T12:23:58.059Z,32.10
2022-11-16T12:26:51.304Z,32.22
2022-11-16T12:29:43.031Z,31.88
2022-11-16T12:32:26.922Z,32.19
2022-11-16T12:35:20.679Z,32.05
2022-11-16T12:38:21.750Z,32.14
2022-11-16T12:41:14.324Z,32.15
2022-11-16T12:43:55.544Z,32.17
2022-11-16T12:46:26.556Z,32.17
2022-11-16T12:49:26.842Z,32.12
2022-11-16T12:52:21.922Z,32.19
2022-11-16T12:55:27.525Z,31.98
2022-11-16T12:58:17.308Z,32.14
2022-11-16T13:01:22.037Z,31.96
2022-11-16T13:04:00.450Z,32.10
2022-11-16T13:07:24.076Z,32.05
2022-11-16T13:10:18.360Z,31.69
2022-11-16T13:13:09.017Z,31.57
2022-11-16T13:15:49.333Z,32.10
2022-11-16T13:18:23.095Z,31.47
2022-11-16T13:21:33.450Z,32.01
2022-11-16T13:24:23.025Z,32.00
2022-11-16T13:27:25.710Z,31.95
2022-11-16T13:30:06.773Z,31.60
2022-11-16T13:33:18.997Z,31.79
2022-11-16T13:35:51.272Z,31.88
2022-11-16T13:38:55.265Z,31.79
2022-11-16T13:41:36.349Z,31.67
2022-11-16T13:44:15.542Z,31.71
2022-11-16T13:46:55.815Z,31.64
2022-11-16T13:49:53.208Z,31.58
2022-11-16T13:52:31.774Z,31.46
2022-11-16T13:55:30.443Z,30.66
2022-11-16T13:58:04.418Z,30.94
2022-11-16T14:00:41.261Z,31.34
2022-11-16T14:03:19.970Z,31.40
2022-11-16T14:05:53.556Z,31.23
2022-11-16T14:08:27.748Z,31.30
2022-11-16T14:10:58.942Z,31.26
2022-11-16T14:13:50.034Z,31.21
2022-11-16T14:16:21.722Z,31.14
2022-11-16T14:18:55.754Z,30.61
2022-11-16T14:21:53.148Z,30.98
2022-11-16T14:24:48.744Z,30.43
2022-11-16T14:27:30.589Z,31.01
2022-11-16T14:30:16.280Z,30.78
2022-11-16T14:32:51.640Z,30.95
2022-11-16T14:35:38.327Z,30.84
2022-11-16T14:38:44.746Z,30.86
2022-11-16T14:41:23.618Z,30.88
2022-11-16T14:43:59.879Z,30.83
2022-11-16T14:46:36.556Z,30.84
2022-11-16T14:49:17.488Z,30.58
2022-11-16T14:51:53.417Z,30.77
2022-11-16T14:54:43.717Z,30.59
2022-11-16T14:57:40.941Z,30.52
2022-11-16T15:00:23.986Z,30.11
2022-11-16T15:03:02.090Z,30.59
2022-11-16T15:05:38.683Z,30.57
2022-11-16T15:08:24.468Z,30.22
2022-11-16T15:10:55.626Z,30.52
2022-11-16T15:13:27.770Z,30.47
2022-11-16T15:16:18.821Z,30.41
2022-11-16T15:19:00.699Z,29.69
2022-11-16T15:21:32.029Z,30.40
2022-11-16T15:24:31.781Z,30.41
2022-11-16T15:26:55.185Z,30.38
2022-11-16T15:29:27.225Z,30.34
2022-11-16T15:31:59.142Z,30.31
2022-11-16T15:34:30.401Z,30.25
2022-11-16T15:37:01.502Z,30.17
2022-11-16T15:39:37.645Z,30.26
2022-11-16T15:42:11.878Z,30.19
2022-11-16T15:44:44.395Z,30.13
2022-11-16T15:47:16.651Z,30.12
2022-11-16T15:49:54.332Z,30.21
2022-11-16T15:52:45.741Z,30.03
2022-11-16T15:55:49.380Z,30.14
2022-11-16T15:58:28.483Z,29.81
2022-11-16T16:01:01.517Z,30.14
2022-11-16T16:03:36.113Z,29.98
2022-11-16T16:06:10.004Z,30.12
2022-11-16T16:08:43.237Z,30.10
2022-11-16T16:11:29.876Z,30.01
2022-11-16T16:14:03.539Z,28.78
2022-11-16T16:16:38.763Z,29.89
2022-11-16T16:19:35.210Z,29.99
2022-11-16T16:22:08.404Z,29.57
2022-11-16T16:24:48.254Z,29.84
2022-11-16T16:27:22.136Z,30.01
2022-11-16T16:29:56.497Z,29.95
2022-11-16T16:32:38.422Z,30.00
2022-11-16T16:35:18.048Z,29.55
2022-11-16T16:38:00.108Z,29.98
2022-11-16T16:40:31.934Z,29.89
2022-11-16T16:43:03.114Z,29.49
2022-11-16T16:45:43.405Z,29.79
2022-11-16T16:48:15.565Z,29.82
2022-11-16T16:50:47.831Z,29.91
2022-11-16T16:53:20.433Z,29.89
2022-11-16T16:55:52.606Z,29.84
2022-11-16T16:58:24.212Z,29.75
2022-11-16T17:01:01.105Z,29.83
2022-11-16T17:03:40.027Z,29.83
2022-11-16T17:06:11.514Z,29.57
2022-11-16T17:08:44.208Z,29.76
2022-11-16T17:11:17.464Z,29.58
2022-11-16T17:13:49.522Z,29.77
2022-11-16T17:16:24.634Z,29.79
2022-11-16T17:18:58.595Z,29.29
2022-11-16T17:21:30.941Z,29.73
2022-11-16T17:24:03.523Z,29.72
2022-11-16T17:26:35.927Z,29.69
2022-11-16T17:29:13.565Z,29.60
2022-11-16T17:31:52.000Z,29.72
2022-11-16T17:34:24.191Z,29.64
2022-11-16T17:36:57.322Z,29.29
2022-11-16T17:39:29.257Z,29.51
2022-11-16T17:42:04.611Z,29.65
2022-11-16T17:44:36.892Z,29.61
2022-11-16T17:47:09.566Z,29.63
2022-11-16T17:49:42.009Z,29.61
2022-11-16T17:52:22.682Z,29.63
2022-11-16T17:54:55.011Z,29.61
2022-11-16T17:57:30.250Z,29.60
2022-11-16T18:00:05.681Z,29.58
2022-11-16T18:02:37.582Z,29.57
2022-11-16T18:05:09.803Z,29.48
2022-11-16T18:07:42.610Z,29.51
2022-11-16T18:10:17.944Z,29.45
2022-11-16T18:12:52.173Z,29.49
2022-11-16T18:15:28.529Z,29.45
2022-11-16T18:18:00.154Z,29.49
2022-11-16T18:20:31.908Z,29.38
2022-11-16T18:23:03.095Z,29.44
2022-11-16T18:25:38.592Z,29.29
2022-11-16T18:28:10.248Z,29.39
2022-11-16T18:30:41.262Z,29.39
2022-11-16T18:33:12.773Z,29.46
2022-11-16T18:35:44.392Z,29.41
2022-11-16T18:38:16.172Z,29.43
2022-11-16T18:40:47.189Z,29.42
2022-11-16T18:43:18.481Z,29.38
2022-11-16T18:45:50.162Z,29.29
2022-11-16T18:48:22.100Z,29.36
2022-11-16T18:50:53.139Z,28.92
2022-11-16T18:53:24.913Z,29.24
2022-11-16T18:55:58.060Z,29.33
2022-11-16T18:58:49.750Z,29.34
2022-11-16T19:01:23.733Z,28.83
2022-11-16T19:03:56.285Z,29.22
2022-11-16T19:06:27.488Z,29.31
2022-11-16T19:09:00.963Z,29.20
2022-11-16T19:11:32.460Z,29.16
2022-11-16T19:14:08.768Z,29.28
2022-11-16T19:16:47.262Z,29.27
2022-11-16T19:19:21.785Z,29.25
2022-11-16T19:21:53.514Z,29.24
2022-11-16T19:24:25.396Z,29.27
2022-11-16T19:26:56.653Z,29.24
2022-11-16T19:29:28.172Z,29.25
2022-11-16T19:31:59.336Z,29.23
2022-11-16T19:34:33.282Z,29.23
2022-11-16T19:37:04.813Z,29.10
2022-11-16T19:39:35.876Z,29.11
2022-11-16T19:42:07.389Z,29.17
2022-11-16T19:44:38.736Z,29.19
2022-11-16T19:47:09.779Z,29.16
2022-11-16T19:49:40.828Z,29.16
2022-11-16T19:52:11.859Z,29.18
2022-11-16T19:54:43.274Z,29.15
2022-11-16T19:57:15.031Z,29.15
2022-11-16T19:59:46.238Z,29.15
2022-11-16T20:02:17.323Z,29.15
2022-11-16T20:04:48.862Z,29.11
2022-11-16T20:07:19.903Z,29.14
2022-11-16T20:09:53.484Z,29.04
2022-11-16T20:12:25.049Z,29.10
2022-11-16T20:14:56.676Z,29.04
2022-11-16T20:17:27.731Z,29.07
2022-11-16T20:19:58.902Z,29.07
2022-11-16T20:22:30.276Z,29.02
2022-11-16T20:25:01.337Z,29.04
2022-11-16T20:27:32.828Z,29.03
2022-11-16T20:30:09.335Z,29.04
2022-11-16T20:32:40.896Z,28.94
2022-11-16T20:35:17.762Z,28.99
2022-11-16T20:37:50.271Z,29.01
2022-11-16T20:40:21.615Z,28.98
2022-11-16T20:42:53.509Z,28.98
2022-11-16T20:45:24.606Z,28.98
2022-11-16T20:47:55.755Z,28.96
2022-11-16T20:50:26.844Z,28.95
2022-11-16T20:52:58.891Z,28.74
2022-11-16T20:55:30.371Z,28.94
2022-11-16T20:58:01.454Z,28.86
2022-11-16T21:00:32.518Z,28.89
2022-11-16T21:03:03.720Z,28.86
2022-11-16T21:05:35.441Z,28.87
2022-11-16T21:08:06.639Z,28.74
2022-11-16T21:10:39.467Z,28.87
2022-11-16T21:13:35.193Z,28.86
2022-11-16T21:16:16.457Z,28.43
2022-11-16T21:18:47.528Z,28.72
2022-11-16T21:21:18.737Z,28.74
2022-11-16T21:23:53.716Z,28.78
2022-11-16T21:26:27.435Z,28.64
2022-11-16T21:28:59.445Z,28.82
2022-11-16T21:31:35.583Z,28.41
2022-11-16T21:34:08.655Z,28.82
2022-11-16T21:36:39.827Z,28.83
2022-11-16T21:39:11.181Z,28.70
2022-11-16T21:41:42.256Z,28.80
2022-11-16T21:44:13.331Z,28.92
2022-11-16T21:46:44.380Z,28.85
2022-11-16T21:49:15.546Z,29.02
2022-11-16T21:51:46.587Z,29.02
2022-11-16T21:54:17.599Z,29.06
2022-11-16T21:56:49.077Z,28.69
2022-11-16T21:59:20.450Z,29.06
2022-11-16T22:02:00.821Z,29.03
2022-11-16T22:04:50.063Z,28.94
2022-11-16T22:07:39.317Z,29.07
2022-11-16T22:10:14.763Z,29.07
2022-11-16T22:12:46.441Z,29.02
2022-11-16T22:15:17.716Z,29.03
2022-11-16T22:17:49.026Z,28.61
2022-11-16T22:20:20.572Z,28.96
2022-11-16T22:22:52.342Z,28.93
2022-11-16T22:25:23.787Z,28.84
2022-11-16T22:30:51.433Z,28.91
2022-11-16T22:33:23.228Z,28.89
2022-11-16T22:35:54.506Z,28.89
2022-11-16T22:38:26.178Z,28.77
2022-11-16T22:40:58.916Z,28.84
2022-11-16T22:43:32.819Z,28.74
2022-11-16T22:46:06.959Z,28.83
2022-11-16T22:48:40.907Z,28.34
2022-11-16T22:51:21.814Z,28.82
2022-11-16T22:54:04.337Z,28.79
2022-11-16T22:56:35.788Z,28.80
2022-11-16T22:59:07.281Z,28.77
2022-11-16T23:01:39.325Z,28.66
2022-11-16T23:04:11.303Z,28.60
2022-11-16T23:06:42.629Z,28.76
2022-11-16T23:09:13.803Z,28.80
2022-11-16T23:12:02.936Z,28.82
2022-11-16T23:14:52.014Z,28.83
2022-11-16T23:17:23.217Z,28.92
2022-11-16T23:20:17.449Z,29.02
2022-11-16T23:23:07.394Z,28.99
2022-11-16T23:25:57.772Z,29.00
2022-11-16T23:28:28.933Z,29.23
2022-11-16T23:31:00.120Z,29.20
2022-11-16T23:33:46.286Z,29.27
2022-11-16T23:36:17.531Z,29.40
2022-11-16T23:38:48.714Z,29.47
2022-11-16T23:41:37.760Z,29.42
2022-11-16T23:44:08.865Z,29.61
2022-11-16T23:46:40.118Z,29.69
2022-11-16T23:49:11.271Z,29.37
2022-11-16T23:51:42.419Z,29.79
2022-11-16T23:54:13.582Z,29.86
2022-11-16T23:56:44.856Z,29.68
2022-11-16T23:59:16.588Z,29.95
